Time;durP1;ratioP1;P1;durP2;ratioP2;P2;SDS_P1;SDS_P2;PMS_P1;PMS_P2;Temp;Humidity;BMP_temperature;BMP_pressure;BME280_temperature;BME280_humidity;BME280_pressure;Samples;Min_cycle;Max_cycle;Signal;HPM_P1;HPM_P2
2022/03/13 00:00:44;;;;;;;5.40;4.30;;;1.70;99.90;;;;;;5073681;28;20732;-67
2022/03/13 00:03:11;;;;;;;4.97;4.18;;;1.60;99.90;;;;;;5073855;28;20590;-67
2022/03/13 00:05:41;;;;;;;5.20;3.95;;;1.60;99.90;;;;;;5074148;28;20200;-67
2022/03/13 00:08:18;;;;;;;4.35;3.88;;;1.60;99.90;;;;;;5074788;28;20204;-66
2022/03/13 00:10:47;;;;;;;4.65;4.20;;;1.50;99.90;;;;;;5073838;28;20184;-68
2022/03/13 00:13:18;;;;;;;4.88;4.25;;;1.50;99.90;;;;;;5073866;28;20583;-67
2022/03/13 00:15:50;;;;;;;4.50;4.10;;;1.50;99.90;;;;;;5075434;28;20188;-67
2022/03/13 00:18:17;;;;;;;4.15;3.83;;;1.50;99.90;;;;;;5074862;28;20768;-67
2022/03/13 00:20:44;;;;;;;5.10;4.45;;;1.40;99.90;;;;;;5074105;28;20291;-68
2022/03/13 00:23:12;;;;;;;4.50;4.10;;;1.40;99.90;;;;;;5073662;28;20259;-67
2022/03/13 00:25:40;;;;;;;4.28;3.88;;;1.40;99.90;;;;;;5074097;28;20239;-67
2022/03/13 00:28:07;;;;;;;4.50;4.10;;;1.40;99.90;;;;;;5073522;28;20253;-66
2022/03/13 00:30:35;;;;;;;4.82;4.35;;;1.30;99.90;;;;;;5073454;28;20227;-67
2022/03/13 00:33:04;;;;;;;4.07;3.78;;;1.30;99.90;;;;;;5073274;28;20266;-66
2022/03/13 00:35:31;;;;;;;5.20;4.55;;;1.30;99.90;;;;;;5073544;28;20203;-66
2022/03/13 00:37:58;;;;;;;4.30;3.92;;;1.30;99.90;;;;;;5073321;28;20200;-66
2022/03/13 00:40:26;;;;;;;5.45;4.63;;;1.30;99.90;;;;;;5072390;28;20695;-66
2022/03/13 00:42:53;;;;;;;4.25;3.72;;;1.20;99.90;;;;;;5072666;28;20267;-67
2022/03/13 00:45:20;;;;;;;5.07;4.07;;;1.20;99.90;;;;;;5072593;28;20203;-68
2022/03/13 00:47:47;;;;;;;4.03;3.72;;;1.20;99.90;;;;;;5072978;28;20372;-67
2022/03/13 00:50:15;;;;;;;4.43;4.03;;;1.20;99.90;;;;;;5072829;28;20199;-67
2022/03/13 00:52:43;;;;;;;4.25;3.90;;;1.10;99.90;;;;;;5072719;28;20219;-67
2022/03/13 00:55:10;;;;;;;5.22;4.25;;;1.10;99.90;;;;;;5072784;28;20307;-67
2022/03/13 00:57:37;;;;;;;3.90;3.60;;;1.10;99.90;;;;;;5072469;28;20265;-67
2022/03/13 01:00:05;;;;;;;5.10;4.03;;;1.00;99.90;;;;;;5072668;28;20293;-67
2022/03/13 01:02:32;;;;;;;5.07;4.15;;;1.00;99.90;;;;;;5072614;28;20657;-67
2022/03/13 01:04:59;;;;;;;4.53;4.10;;;1.00;99.90;;;;;;5072687;28;20235;-67
2022/03/13 01:07:27;;;;;;;5.30;4.45;;;0.90;99.90;;;;;;5072635;28;20288;-67
2022/03/13 01:09:54;;;;;;;5.47;4.20;;;0.90;99.90;;;;;;5072711;28;20249;-67
2022/03/13 01:12:21;;;;;;;5.93;4.68;;;0.90;99.90;;;;;;5072495;28;20311;-67
2022/03/13 01:14:48;;;;;;;4.30;3.90;;;0.90;99.90;;;;;;5072579;28;20208;-67
2022/03/13 01:17:20;;;;;;;5.30;4.65;;;0.90;99.90;;;;;;5074025;28;20296;-67
2022/03/13 01:19:47;;;;;;;5.40;4.78;;;0.80;99.90;;;;;;5076455;28;20204;-67
2022/03/13 01:22:14;;;;;;;5.50;4.18;;;0.80;99.90;;;;;;5076165;28;20220;-67
2022/03/13 01:24:45;;;;;;;5.32;4.25;;;0.80;99.90;;;;;;5076211;28;20208;-67
2022/03/13 01:27:13;;;;;;;5.40;4.47;;;0.80;99.90;;;;;;5076191;28;20185;-67
2022/03/13 01:29:41;;;;;;;4.50;4.10;;;0.80;99.90;;;;;;5075845;28;20204;-67
2022/03/13 01:32:10;;;;;;;4.90;4.40;;;0.80;99.90;;;;;;5075669;28;20224;-67
2022/03/13 01:34:43;;;;;;;5.40;4.55;;;0.70;99.90;;;;;;5075989;28;20199;-67
2022/03/13 01:37:15;;;;;;;5.32;4.20;;;0.70;99.90;;;;;;5075721;28;20275;-67
2022/03/13 01:39:43;;;;;;;5.18;4.28;;;0.70;99.90;;;;;;5075598;28;20204;-67
2022/03/13 01:42:11;;;;;;;4.78;4.25;;;0.70;99.90;;;;;;5075567;28;20258;-67
2022/03/13 01:44:39;;;;;;;4.60;4.20;;;0.70;99.90;;;;;;5075464;28;20203;-67
2022/03/13 01:47:06;;;;;;;5.70;4.15;;;0.70;99.90;;;;;;5075808;28;20206;-67
2022/03/13 01:49:34;;;;;;;5.72;4.65;;;0.60;99.90;;;;;;5075652;28;20200;-67
2022/03/13 01:52:01;;;;;;;5.25;4.53;;;0.60;99.90;;;;;;5075610;28;20678;-67
2022/03/13 01:54:30;;;;;;;4.82;4.28;;;0.60;99.90;;;;;;5075333;28;20235;-67
2022/03/13 01:57:00;;;;;;;4.97;4.47;;;0.50;99.90;;;;;;5075909;28;20239;-67
2022/03/13 01:59:29;;;;;;;5.25;4.30;;;0.50;99.90;;;;;;5075352;28;20628;-67
2022/03/13 02:01:57;;;;;;;5.28;4.55;;;0.50;99.90;;;;;;5075258;28;20216;-67
2022/03/13 02:04:25;;;;;;;4.60;4.20;;;0.50;99.90;;;;;;5076141;28;20196;-67
2022/03/13 02:06:53;;;;;;;4.85;4.35;;;0.50;99.90;;;;;;5075560;28;20246;-67
2022/03/13 02:09:20;;;;;;;4.35;3.95;;;0.50;99.90;;;;;;5076591;28;20207;-67
2022/03/13 02:11:49;;;;;;;4.95;4.28;;;0.50;99.90;;;;;;5076011;28;20778;-66
2022/03/13 02:14:21;;;;;;;4.40;4.00;;;0.40;99.90;;;;;;5075581;28;20199;-66
2022/03/13 02:16:48;;;;;;;4.20;3.80;;;0.40;99.90;;;;;;5075628;28;20199;-66
2022/03/13 02:19:16;;;;;;;4.43;4.05;;;0.40;99.90;;;;;;5075531;28;20230;-66
2022/03/13 02:21:45;;;;;;;4.00;3.70;;;0.40;99.90;;;;;;5075250;28;20216;-66
2022/03/13 02:24:16;;;;;;;4.50;4.10;;;0.40;99.90;;;;;;5074839;28;20659;-66
2022/03/13 02:26:45;;;;;;;4.30;3.90;;;0.30;99.90;;;;;;5075022;28;20635;-66
2022/03/13 02:29:15;;;;;;;4.93;4.15;;;0.30;99.90;;;;;;5074519;28;20192;-66
2022/03/13 02:31:43;;;;;;;4.53;4.10;;;0.30;99.90;;;;;;5075017;28;20222;-66
2022/03/13 02:34:13;;;;;;;3.88;3.53;;;0.30;99.90;;;;;;5074936;28;20200;-66
2022/03/13 02:36:55;;;;;;;4.47;4.07;;;0.20;99.90;;;;;;5074986;28;20216;-66
2022/03/13 02:39:25;;;;;;;4.20;3.80;;;0.20;99.90;;;;;;5075058;28;20208;-66
2022/03/13 02:41:52;;;;;;;3.95;3.65;;;0.20;99.90;;;;;;5074576;28;20228;-66
2022/03/13 02:44:19;;;;;;;4.68;3.95;;;0.20;99.90;;;;;;5074763;28;20211;-66
2022/03/13 02:46:58;;;;;;;5.88;4.53;;;0.20;99.90;;;;;;5074524;28;20203;-66
2022/03/13 02:49:26;;;;;;;4.32;4.03;;;0.10;99.90;;;;;;5075390;28;20191;-66
2022/03/13 02:51:57;;;;;;;5.22;4.28;;;0.10;99.90;;;;;;5074545;28;20220;-66
2022/03/13 02:54:25;;;;;;;5.47;4.68;;;0.10;99.90;;;;;;5074274;28;20184;-66
2022/03/13 02:56:52;;;;;;;4.97;4.22;;;0.10;99.90;;;;;;5074508;28;20609;-66
2022/03/13 02:59:20;;;;;;;4.88;4.35;;;0.10;99.90;;;;;;5074270;28;20230;-66
2022/03/13 03:01:47;;;;;;;4.63;4.05;;;0.00;99.90;;;;;;5074353;28;20216;-66
2022/03/13 03:04:15;;;;;;;5.85;4.82;;;0.00;99.90;;;;;;5074330;28;20202;-66
2022/03/13 03:06:56;;;;;;;5.57;4.82;;;0.00;99.90;;;;;;5074281;28;20206;-66
2022/03/13 03:09:25;;;;;;;5.72;4.45;;;0.00;99.90;;;;;;5074269;28;20176;-66
2022/03/13 03:11:51;;;;;;;4.80;4.40;;;0.00;99.90;;;;;;5073769;28;20567;-66
2022/03/13 03:14:19;;;;;;;4.40;4.00;;;-0.10;99.90;;;;;;5073831;28;20291;-66
2022/03/13 03:16:46;;;;;;;5.13;4.32;;;-0.10;99.90;;;;;;5073787;28;20663;-66
2022/03/13 03:19:13;;;;;;;5.32;4.80;;;-0.10;99.90;;;;;;5074058;28;20230;-66
2022/03/13 03:21:40;;;;;;;5.40;4.43;;;-0.10;99.90;;;;;;5074099;28;20314;-66
2022/03/13 03:24:20;;;;;;;5.75;4.18;;;-0.10;99.90;;;;;;5074062;28;20207;-66
2022/03/13 03:26:48;;;;;;;7.45;4.38;;;-0.10;99.90;;;;;;5073991;28;20192;-66
2022/03/13 03:29:16;;;;;;;5.00;4.20;;;-0.10;99.90;;;;;;5073507;28;20645;-66
2022/03/13 03:31:45;;;;;;;4.70;4.30;;;-0.10;99.90;;;;;;5073416;28;20563;-66
2022/03/13 03:34:14;;;;;;;6.80;4.70;;;-0.20;99.90;;;;;;5073963;28;20200;-66
2022/03/13 03:36:42;;;;;;;4.55;3.97;;;-0.20;99.90;;;;;;5073794;28;20203;-66
2022/03/13 03:39:10;;;;;;;4.20;3.80;;;-0.20;99.90;;;;;;5073304;28;20663;-66
2022/03/13 03:41:37;;;;;;;4.68;4.18;;;-0.20;99.90;;;;;;5073271;28;20327;-66
2022/03/13 03:44:06;;;;;;;4.68;4.05;;;-0.20;99.90;;;;;;5073625;28;20551;-66
2022/03/13 03:46:33;;;;;;;4.53;4.13;;;-0.20;99.90;;;;;;5073243;28;20619;-65
2022/03/13 03:49:00;;;;;;;4.25;3.85;;;-0.20;99.90;;;;;;5073496;28;20204;-65
2022/03/13 03:51:27;;;;;;;4.60;3.83;;;-0.20;99.90;;;;;;5073153;28;20603;-66
2022/03/13 03:53:53;;;;;;;3.75;3.45;;;-0.30;99.90;;;;;;5073112;28;20641;-66
2022/03/13 03:56:20;;;;;;;5.00;3.47;;;-0.30;99.90;;;;;;5073419;28;20291;-66
2022/03/13 03:58:48;;;;;;;4.70;4.10;;;-0.30;99.90;;;;;;5073360;28;20203;-66
2022/03/13 04:01:17;;;;;;;6.47;4.05;;;-0.30;99.90;;;;;;5073240;28;20220;-66
2022/03/13 04:03:44;;;;;;;5.47;4.97;;;-0.30;99.90;;;;;;5073366;28;20350;-65
2022/03/13 04:06:11;;;;;;;9.30;5.47;;;-0.30;99.90;;;;;;5073552;28;20269;-66
2022/03/13 04:08:37;;;;;;;5.90;4.68;;;-0.40;99.90;;;;;;5073269;28;20212;-66
2022/03/13 04:11:04;;;;;;;7.28;4.60;;;-0.40;99.90;;;;;;5072919;28;20204;-66
2022/03/13 04:13:33;;;;;;;6.10;4.53;;;-0.40;99.90;;;;;;5073173;28;20265;-66
2022/03/13 04:15:59;;;;;;;4.65;4.25;;;-0.40;99.90;;;;;;5073196;28;20207;-66
2022/03/13 04:18:28;;;;;;;4.25;3.78;;;-0.40;99.90;;;;;;5073175;28;20200;-66
2022/03/13 04:20:54;;;;;;;5.65;4.57;;;-0.40;99.90;;;;;;5073576;28;20369;-66
2022/03/13 04:23:21;;;;;;;5.47;4.45;;;-0.40;99.90;;;;;;5072801;28;20770;-66
2022/03/13 04:25:48;;;;;;;4.78;4.05;;;-0.40;99.90;;;;;;5073128;28;20233;-66
2022/03/13 04:28:15;;;;;;;4.40;3.88;;;-0.50;99.90;;;;;;5073164;28;20195;-66
2022/03/13 04:30:44;;;;;;;4.30;3.90;;;-0.50;99.90;;;;;;5073115;28;20192;-66
2022/03/13 04:33:11;;;;;;;4.20;3.80;;;-0.50;99.90;;;;;;5073014;28;20314;-66
2022/03/13 04:35:39;;;;;;;4.50;4.05;;;-0.50;99.90;;;;;;5073062;28;20214;-65
2022/03/13 04:38:06;;;;;;;5.13;4.18;;;-0.50;99.90;;;;;;5073191;28;20203;-65
2022/03/13 04:40:33;;;;;;;4.35;3.70;;;-0.50;99.90;;;;;;5072997;28;20215;-66
2022/03/13 04:42:59;;;;;;;5.70;4.22;;;-0.50;99.90;;;;;;5072598;28;20235;-67
2022/03/13 04:45:26;;;;;;;4.20;3.80;;;-0.50;99.90;;;;;;5072590;28;20200;-66
2022/03/13 04:47:53;;;;;;;4.25;3.97;;;-0.60;99.90;;;;;;5072933;28;20571;-66
2022/03/13 04:50:20;;;;;;;5.18;4.43;;;-0.60;99.90;;;;;;5072870;28;20199;-66
2022/03/13 04:52:48;;;;;;;4.53;3.95;;;-0.60;99.90;;;;;;5074858;28;20215;-66
2022/03/13 04:55:17;;;;;;;3.90;3.50;;;-0.60;99.90;;;;;;5076831;28;20234;-66
2022/03/13 04:57:44;;;;;;;6.40;4.47;;;-0.60;99.90;;;;;;5076969;28;20254;-66
2022/03/13 05:00:11;;;;;;;4.00;3.58;;;-0.60;99.90;;;;;;5076539;28;20223;-66
2022/03/13 05:02:38;;;;;;;4.22;3.83;;;-0.60;99.90;;;;;;5076654;28;20216;-66
2022/03/13 05:05:06;;;;;;;4.18;3.72;;;-0.60;99.90;;;;;;5076264;28;20250;-66
2022/03/13 05:07:34;;;;;;;4.13;3.72;;;-0.60;99.90;;;;;;5076590;28;20195;-66
2022/03/13 05:10:02;;;;;;;3.90;3.58;;;-0.60;99.90;;;;;;5076472;28;20299;-66
2022/03/13 05:12:29;;;;;;;4.07;3.45;;;-0.60;99.90;;;;;;5076473;28;20224;-66
2022/03/13 05:14:56;;;;;;;4.82;3.97;;;-0.70;99.90;;;;;;5076939;28;20207;-66
2022/03/13 05:17:23;;;;;;;4.22;3.92;;;-0.70;99.90;;;;;;5076381;28;20290;-66
2022/03/13 05:19:50;;;;;;;4.22;3.83;;;-0.70;99.90;;;;;;5076320;28;20287;-66
2022/03/13 05:22:17;;;;;;;4.38;4.00;;;-0.70;99.90;;;;;;5076473;28;20222;-67
2022/03/13 05:24:44;;;;;;;4.18;3.78;;;-0.70;99.90;;;;;;5076218;28;20200;-66
2022/03/13 05:27:12;;;;;;;4.32;4.00;;;-0.70;99.90;;;;;;5076229;28;20203;-67
2022/03/13 05:29:39;;;;;;;3.67;3.30;;;-0.80;99.90;;;;;;5075792;28;20196;-66
2022/03/13 05:32:06;;;;;;;3.97;3.47;;;-0.80;99.90;;;;;;5076059;28;20312;-66
2022/03/13 05:34:33;;;;;;;4.28;3.63;;;-0.80;99.90;;;;;;5076098;28;20210;-66
2022/03/13 05:37:00;;;;;;;4.60;3.70;;;-0.80;99.90;;;;;;5075789;28;20730;-66
2022/03/13 05:39:27;;;;;;;4.32;3.75;;;-0.70;99.90;;;;;;5075711;28;20295;-66
2022/03/13 05:41:55;;;;;;;3.92;3.63;;;-0.80;99.90;;;;;;5075655;28;20311;-66
2022/03/13 05:44:24;;;;;;;3.75;3.50;;;-0.80;99.90;;;;;;5075910;28;20208;-66
2022/03/13 05:46:50;;;;;;;4.22;3.75;;;-0.70;99.90;;;;;;5075861;28;20196;-66
2022/03/13 05:49:17;;;;;;;3.53;3.33;;;-0.70;99.90;;;;;;5075482;28;20278;-66
2022/03/13 05:51:46;;;;;;;4.75;3.85;;;-0.70;99.90;;;;;;5075301;28;20306;-66
2022/03/13 05:54:12;;;;;;;4.15;3.75;;;-0.70;99.90;;;;;;5075694;28;20200;-66
2022/03/13 05:56:39;;;;;;;4.25;3.85;;;-0.70;99.90;;;;;;5075236;28;20634;-66
2022/03/13 05:59:07;;;;;;;5.18;3.92;;;-0.70;99.90;;;;;;5075638;28;20207;-66
2022/03/13 06:01:35;;;;;;;4.10;3.70;;;-0.60;99.90;;;;;;5075518;28;20256;-66
2022/03/13 06:04:03;;;;;;;4.18;3.60;;;-0.60;99.90;;;;;;5074536;28;20206;-66
2022/03/13 06:06:32;;;;;;;4.50;3.58;;;-0.50;99.90;;;;;;5075596;28;20207;-65
2022/03/13 06:08:59;;;;;;;4.28;3.80;;;-0.40;99.90;;;;;;5075422;28;20299;-66
2022/03/13 06:11:25;;;;;;;4.20;3.72;;;-0.20;99.90;;;;;;5075361;28;20299;-66
2022/03/13 06:13:52;;;;;;;4.55;4.10;;;0.00;99.90;;;;;;5075390;28;20202;-66
2022/03/13 06:16:21;;;;;;;5.10;4.03;;;0.20;99.90;;;;;;5075265;28;20204;-66
2022/03/13 06:18:49;;;;;;;6.97;4.82;;;0.40;99.90;;;;;;5075301;28;20296;-66
2022/03/13 06:21:16;;;;;;;5.63;4.68;;;0.70;99.90;;;;;;5075079;28;20306;-66
2022/03/13 06:23:43;;;;;;;5.55;4.72;;;1.40;99.90;;;;;;5075150;28;20307;-66
2022/03/13 06:26:10;;;;;;;6.43;5.18;;;2.40;99.90;;;;;;5075843;28;20228;-66
2022/03/13 06:28:37;;;;;;;9.02;5.70;;;3.60;99.90;;;;;;5074786;28;20287;-66
2022/03/13 06:31:04;;;;;;;6.50;5.40;;;4.90;99.90;;;;;;5075279;28;20286;-66
2022/03/13 06:33:31;;;;;;;7.55;5.95;;;5.90;99.90;;;;;;5075252;28;20246;-66
2022/03/13 06:35:59;;;;;;;7.35;5.75;;;6.70;85.60;;;;;;5075264;28;20200;-66
2022/03/13 06:38:26;;;;;;;8.23;6.03;;;7.10;59.80;;;;;;5075132;28;20290;-66
2022/03/13 06:40:53;;;;;;;6.15;5.50;;;7.40;61.50;;;;;;5074999;28;20657;-67
2022/03/13 06:43:20;;;;;;;8.30;6.05;;;8.10;72.30;;;;;;5074747;28;20232;-66
2022/03/13 06:45:47;;;;;;;11.38;7.35;;;9.00;65.10;;;;;;5074990;28;20208;-66
2022/03/13 06:48:15;;;;;;;12.40;8.25;;;10.00;52.80;;;;;;5074763;28;20306;-66
2022/03/13 06:50:43;;;;;;;12.68;8.88;;;10.80;46.20;;;;;;5074620;28;20547;-66
2022/03/13 06:53:11;;;;;;;12.80;8.88;;;11.50;41.20;;;;;;5074591;28;20232;-66
2022/03/13 06:55:38;;;;;;;13.43;7.95;;;12.20;38.70;;;;;;5074325;28;20602;-66
2022/03/13 06:58:05;;;;;;;12.13;7.60;;;12.80;36.40;;;;;;5074529;28;20206;-66
2022/03/13 07:00:32;;;;;;;11.75;8.48;;;13.60;34.10;;;;;;5074313;28;20306;-66
2022/03/13 07:02:59;;;;;;;12.75;9.07;;;14.40;31.80;;;;;;5074402;28;20219;-67
2022/03/13 07:05:25;;;;;;;11.13;8.07;;;15.10;29.80;;;;;;5074067;28;20681;-67
2022/03/13 07:07:54;;;;;;;12.80;9.35;;;15.60;28.70;;;;;;5074297;28;20196;-67
2022/03/13 07:10:23;;;;;;;14.40;9.82;;;16.00;26.80;;;;;;5074552;28;20196;-67
2022/03/13 07:12:50;;;;;;;15.07;8.95;;;16.10;25.50;;;;;;5074259;28;20219;-67
2022/03/13 07:15:18;;;;;;;18.88;11.48;;;16.30;23.20;;;;;;5074311;28;20196;-67
2022/03/13 07:17:46;;;;;;;14.30;10.07;;;15.80;22.00;;;;;;5073924;28;20722;-67
2022/03/13 07:20:13;;;;;;;15.25;9.70;;;15.50;23.60;;;;;;5073789;28;20204;-67
2022/03/13 07:22:42;;;;;;;14.30;10.20;;;15.30;22.70;;;;;;5074027;28;20219;-67
2022/03/13 07:25:10;;;;;;;13.45;10.25;;;14.90;23.20;;;;;;5074052;28;20203;-68
2022/03/13 07:27:38;;;;;;;14.77;9.45;;;14.50;23.20;;;;;;5073633;28;20616;-67
2022/03/13 07:30:05;;;;;;;12.38;9.50;;;14.20;23.90;;;;;;5073926;28;20204;-67
2022/03/13 07:32:32;;;;;;;11.50;8.18;;;14.10;24.00;;;;;;5074034;28;20607;-67
2022/03/13 07:34:59;;;;;;;12.52;9.40;;;13.90;24.00;;;;;;5073777;28;20242;-67
2022/03/13 07:37:26;;;;;;;16.55;10.15;;;13.70;23.80;;;;;;5073724;28;20287;-67
2022/03/13 07:39:53;;;;;;;14.38;10.00;;;13.20;24.10;;;;;;5073883;28;20204;-71
2022/03/13 07:42:20;;;;;;;13.75;9.95;;;12.60;24.80;;;;;;5073685;28;20705;-69
2022/03/13 07:44:48;;;;;;;13.35;10.00;;;12.00;25.00;;;;;;5073854;28;20238;-71
2022/03/13 07:47:15;;;;;;;14.50;10.38;;;11.60;25.60;;;;;;5073933;28;20246;-71
2022/03/13 07:49:42;;;;;;;15.25;9.82;;;11.20;25.70;;;;;;5073452;28;20682;-71
2022/03/13 07:52:09;;;;;;;14.77;10.13;;;11.10;26.20;;;;;;5073292;28;20220;-71
2022/03/13 07:54:36;;;;;;;15.43;9.90;;;11.00;26.80;;;;;;5073632;28;20203;-70
2022/03/13 07:57:04;;;;;;;13.50;10.10;;;11.10;26.30;;;;;;5073636;28;20207;-70
2022/03/13 07:59:31;;;;;;;13.43;10.27;;;11.10;26.50;;;;;;5073259;28;20649;-68
2022/03/13 08:02:00;;;;;;;15.10;9.27;;;11.10;26.90;;;;;;5073385;28;20667;-68
2022/03/13 08:04:27;;;;;;;13.25;9.48;;;11.40;27.40;;;;;;5073256;28;20200;-67
2022/03/13 08:06:54;;;;;;;12.40;9.35;;;11.50;26.40;;;;;;5073086;28;20207;-67
2022/03/13 08:09:21;;;;;;;12.80;8.80;;;11.80;26.60;;;;;;5073392;28;20291;-67
2022/03/13 08:11:48;;;;;;;13.43;9.73;;;12.10;26.30;;;;;;5072535;28;20699;-67
2022/03/13 08:14:15;;;;;;;12.35;9.40;;;12.30;25.50;;;;;;5072657;28;20693;-67
2022/03/13 08:16:42;;;;;;;12.55;9.18;;;12.30;25.70;;;;;;5075743;28;20196;-67
2022/03/13 08:19:11;;;;;;;11.50;9.45;;;12.20;25.70;;;;;;5077839;28;20203;-68
2022/03/13 08:21:39;;;;;;;10.73;8.77;;;12.00;25.50;;;;;;5077282;28;20234;-68
2022/03/13 08:24:07;;;;;;;11.43;8.85;;;11.80;26.00;;;;;;5077812;28;20199;-68
2022/03/13 08:26:38;;;;;;;9.77;8.07;;;11.70;26.30;;;;;;5076251;28;20726;-68
2022/03/13 08:29:05;;;;;;;10.00;7.82;;;11.60;26.50;;;;;;5077375;28;20184;-69
2022/03/13 08:31:33;;;;;;;9.40;7.53;;;11.40;26.80;;;;;;5076914;28;20226;-68
2022/03/13 08:34:00;;;;;;;10.38;8.05;;;11.20;27.40;;;;;;5076307;28;20204;-68
2022/03/13 08:36:29;;;;;;;8.43;7.10;;;11.00;27.30;;;;;;5076981;28;20642;-68
2022/03/13 08:38:56;;;;;;;15.13;9.70;;;10.80;27.80;;;;;;5076628;28;20267;-68
2022/03/13 08:41:24;;;;;;;13.52;10.07;;;10.60;27.90;;;;;;5077116;28;20242;-68
2022/03/13 08:43:51;;;;;;;12.70;9.40;;;10.30;28.40;;;;;;5077819;28;20268;-68
2022/03/13 08:46:18;;;;;;;13.68;8.60;;;10.20;28.60;;;;;;5075821;28;20202;-68
2022/03/13 08:48:45;;;;;;;12.35;9.05;;;10.10;28.80;;;;;;5072724;28;20206;-68
2022/03/13 08:51:13;;;;;;;9.95;7.65;;;10.10;29.00;;;;;;5072799;28;20222;-66
2022/03/13 08:53:42;;;;;;;11.05;8.63;;;10.10;29.00;;;;;;5073042;28;20204;-66
2022/03/13 08:56:09;;;;;;;11.82;8.85;;;10.10;29.20;;;;;;5073122;28;20599;-66
2022/03/13 08:58:35;;;;;;;14.18;9.65;;;10.00;29.00;;;;;;5072531;28;20204;-67
2022/03/13 09:01:02;;;;;;;13.73;10.07;;;10.00;29.10;;;;;;5072845;28;20196;-67
2022/03/13 09:03:29;;;;;;;17.55;10.32;;;9.80;29.90;;;;;;5072807;28;20274;-68
2022/03/13 09:05:56;;;;;;;14.05;10.38;;;9.70;30.00;;;;;;5072878;28;20226;-68
2022/03/13 09:08:23;;;;;;;11.70;8.43;;;9.70;29.90;;;;;;5072945;28;20204;-68
2022/03/13 09:10:53;;;;;;;10.48;8.15;;;9.70;30.10;;;;;;5072642;28;20649;-68
2022/03/13 09:13:20;;;;;;;10.75;8.77;;;9.70;30.60;;;;;;5072827;28;20626;-68
2022/03/13 09:15:47;;;;;;;13.05;9.32;;;9.90;30.70;;;;;;5072896;28;20231;-68
2022/03/13 09:18:14;;;;;;;10.93;8.27;;;10.00;29.90;;;;;;5072767;28;20207;-68
2022/03/13 09:20:41;;;;;;;12.32;8.35;;;10.10;30.00;;;;;;5072780;28;20235;-68
2022/03/13 09:23:08;;;;;;;15.95;10.63;;;10.20;30.50;;;;;;5072660;28;20228;-68
2022/03/13 09:25:35;;;;;;;12.70;8.90;;;10.30;29.60;;;;;;5073139;28;20544;-70
2022/03/13 09:28:05;;;;;;;12.90;9.35;;;10.40;29.70;;;;;;5072685;28;20292;-68
2022/03/13 09:30:32;;;;;;;14.68;9.85;;;10.50;29.70;;;;;;5072706;28;20200;-70
2022/03/13 09:32:59;;;;;;;12.68;9.15;;;10.70;28.90;;;;;;5072652;28;20218;-67
2022/03/13 09:35:26;;;;;;;13.43;8.65;;;10.80;29.30;;;;;;5072613;28;20253;-67
2022/03/13 09:37:53;;;;;;;10.43;7.63;;;11.00;29.10;;;;;;5072956;28;20287;-67
2022/03/13 15:32:31;;;;;;;4.50;4.05;;;14.00;18.90;;;;;;5321596;22;20221;-68
2022/03/13 15:34:58;;;;;;;3.58;3.28;;;14.00;18.90;;;;;;5053937;28;20667;-67
2022/03/13 15:37:25;;;;;;;5.18;4.70;;;14.00;19.10;;;;;;5053654;28;20224;-69
2022/03/13 15:39:51;;;;;;;7.40;5.20;;;14.00;19.30;;;;;;5054309;28;20232;-68
2022/03/13 15:42:18;;;;;;;4.25;3.85;;;14.00;19.10;;;;;;5053693;28;20220;-68
2022/03/13 15:44:46;;;;;;;4.97;3.92;;;14.00;19.40;;;;;;5054606;28;20291;-69
2022/03/13 15:47:13;;;;;;;4.60;4.18;;;13.90;19.30;;;;;;5054502;28;20189;-69
2022/03/13 15:49:42;;;;;;;3.40;3.17;;;13.90;18.70;;;;;;5054160;28;20200;-69
2022/03/13 15:52:09;;;;;;;4.80;4.20;;;13.80;18.90;;;;;;5053682;28;20699;-68
2022/03/13 15:54:37;;;;;;;4.15;3.78;;;13.80;18.90;;;;;;5053816;28;20185;-70
2022/03/13 15:57:05;;;;;;;4.93;4.43;;;13.80;19.10;;;;;;5053710;28;20706;-69
2022/03/13 15:59:33;;;;;;;5.68;4.60;;;13.80;19.20;;;;;;5053427;28;20681;-69
2022/03/13 16:02:00;;;;;;;7.15;5.20;;;13.80;19.30;;;;;;5053728;28;20578;-69
2022/03/13 16:04:26;;;;;;;8.15;5.65;;;13.80;19.40;;;;;;5053391;28;20211;-69
2022/03/13 16:06:56;;;;;;;7.03;4.82;;;13.80;19.80;;;;;;5053836;28;20234;-68
2022/03/13 16:09:23;;;;;;;6.07;4.95;;;13.80;19.80;;;;;;5053592;28;20281;-69
2022/03/13 16:11:50;;;;;;;5.90;4.30;;;13.80;19.70;;;;;;5053470;28;20307;-69
2022/03/13 16:14:18;;;;;;;5.97;4.82;;;13.70;19.80;;;;;;5054204;28;20216;-69
2022/03/13 16:16:45;;;;;;;6.07;4.50;;;13.70;19.30;;;;;;5053346;28;20208;-69
2022/03/13 16:19:14;;;;;;;4.72;3.95;;;13.70;19.40;;;;;;5053210;28;20576;-69
2022/03/13 16:21:42;;;;;;;4.30;3.70;;;13.70;19.70;;;;;;5053361;28;20220;-69
2022/03/13 16:24:10;;;;;;;4.55;3.80;;;13.60;19.60;;;;;;5053267;28;20660;-69
2022/03/13 16:26:38;;;;;;;4.57;4.00;;;13.60;19.60;;;;;;5053559;28;20204;-69
2022/03/13 16:29:05;;;;;;;3.70;3.40;;;13.60;19.20;;;;;;5053176;28;20212;-69
2022/03/13 16:31:32;;;;;;;3.35;3.05;;;13.60;19.10;;;;;;5053886;28;20227;-69
2022/03/13 16:33:59;;;;;;;3.05;2.80;;;13.50;19.60;;;;;;5053411;28;20299;-69
2022/03/13 16:36:26;;;;;;;3.72;3.42;;;13.40;20.50;;;;;;5053390;28;20227;-69
2022/03/13 16:38:53;;;;;;;3.33;3.03;;;13.30;20.50;;;;;;5053692;28;20273;-69
2022/03/13 16:41:21;;;;;;;3.70;3.40;;;13.10;20.70;;;;;;5053390;28;20651;-68
2022/03/13 16:43:48;;;;;;;3.10;2.83;;;13.00;20.70;;;;;;5053357;28;20258;-68
2022/03/13 16:46:15;;;;;;;2.83;2.63;;;12.80;21.20;;;;;;5053563;28;20195;-70
2022/03/13 16:48:42;;;;;;;3.50;2.65;;;12.70;20.90;;;;;;5055685;28;20230;-70
2022/03/13 16:51:09;;;;;;;2.55;2.35;;;12.60;21.40;;;;;;5057097;28;20311;-71
2022/03/13 16:53:36;;;;;;;2.45;2.25;;;12.40;21.50;;;;;;5057443;28;20196;-71
2022/03/13 16:56:04;;;;;;;2.13;2.03;;;12.30;21.50;;;;;;5057532;28;20196;-71
2022/03/13 16:58:32;;;;;;;2.13;2.03;;;12.20;22.60;;;;;;5057419;28;20200;-71
2022/03/13 17:01:00;;;;;;;2.50;2.30;;;12.00;22.70;;;;;;5057288;28;20307;-71
2022/03/13 17:03:27;;;;;;;2.25;2.10;;;11.90;22.70;;;;;;5056840;28;20291;-71
2022/03/13 17:05:54;;;;;;;1.80;1.70;;;11.80;23.30;;;;;;5056977;28;20200;-72
2022/03/13 17:08:20;;;;;;;1.85;1.75;;;11.60;23.40;;;;;;5056910;28;20209;-72
2022/03/13 17:10:48;;;;;;;1.52;1.42;;;11.50;23.60;;;;;;5057187;28;20205;-72
2022/03/13 17:13:16;;;;;;;1.67;1.67;;;11.40;23.90;;;;;;5057095;28;20193;-72
2022/03/13 17:15:44;;;;;;;1.40;1.40;;;11.20;24.30;;;;;;5056983;28;20262;-72
2022/03/13 17:18:18;;;;;;;1.98;1.63;;;11.10;24.60;;;;;;5057196;28;20295;-71
2022/03/13 17:20:46;;;;;;;8.98;6.07;;;10.90;24.70;;;;;;5057832;28;20197;-71
2022/03/13 17:23:12;;;;;;;8.52;5.70;;;10.80;24.60;;;;;;5057823;28;20275;-73
2022/03/13 17:25:40;;;;;;;5.97;4.80;;;10.90;24.60;;;;;;5057153;28;20667;-72
2022/03/13 17:28:06;;;;;;;6.25;4.88;;;10.90;24.80;;;;;;5061046;28;20239;-72
2022/03/13 17:30:44;;;;;;;4.90;4.13;;;11.00;25.20;;;;;;5059573;28;20634;-71
2022/03/13 17:33:12;;;;;;;6.38;4.85;;;10.90;25.40;;;;;;5056600;28;20201;-71
2022/03/13 17:35:39;;;;;;;5.50;4.43;;;10.80;25.50;;;;;;5057128;28;20211;-70
2022/03/13 17:38:06;;;;;;;3.42;3.10;;;10.80;26.30;;;;;;5056134;28;20201;-70
2022/03/13 17:40:34;;;;;;;3.22;2.90;;;10.60;26.40;;;;;;5056135;28;20201;-71
2022/03/13 17:43:01;;;;;;;3.58;3.15;;;10.50;26.70;;;;;;5057391;28;20248;-71
2022/03/13 17:45:28;;;;;;;2.58;2.38;;;10.30;26.80;;;;;;5057921;28;20197;-72
2022/03/13 17:47:56;;;;;;;2.55;2.38;;;10.10;27.10;;;;;;5058051;28;20215;-72
2022/03/13 17:50:25;;;;;;;2.28;2.10;;;10.00;28.10;;;;;;5058746;28;20228;-72
2022/03/13 17:52:53;;;;;;;1.90;1.80;;;9.80;29.00;;;;;;5059492;28;20235;-72
2022/03/13 17:55:21;;;;;;;2.15;2.05;;;9.70;29.40;;;;;;5058815;28;20212;-72
2022/03/13 17:57:49;;;;;;;3.17;2.50;;;9.50;29.80;;;;;;5058792;28;20200;-73
2022/03/13 18:00:16;;;;;;;1.60;1.50;;;9.40;29.80;;;;;;5058112;28;20200;-73
2022/03/13 18:02:44;;;;;;;1.88;1.77;;;9.30;30.00;;;;;;5060202;28;20696;-71
2022/03/13 18:05:12;;;;;;;2.20;2.10;;;9.30;30.60;;;;;;5059553;28;20219;-71
2022/03/13 18:07:41;;;;;;;1.98;1.88;;;9.20;30.20;;;;;;5060221;28;20197;-71
2022/03/13 18:10:09;;;;;;;2.28;2.10;;;9.00;30.30;;;;;;5058851;28;20201;-72
2022/03/13 18:12:36;;;;;;;2.05;1.95;;;8.90;30.40;;;;;;5059404;28;20223;-71
2022/03/13 18:15:04;;;;;;;2.45;1.98;;;8.90;30.60;;;;;;5059027;28;20204;-72
2022/03/13 18:17:31;;;;;;;1.98;1.83;;;8.80;30.70;;;;;;5058866;28;20656;-72
2022/03/13 18:19:58;;;;;;;1.88;1.77;;;8.80;31.10;;;;;;5059164;28;20204;-72
2022/03/13 18:22:25;;;;;;;1.90;1.70;;;8.70;31.40;;;;;;5058748;28;20598;-71
2022/03/13 18:24:55;;;;;;;2.78;2.58;;;8.60;32.40;;;;;;5059685;28;20209;-73
2022/03/13 18:27:22;;;;;;;2.50;2.40;;;8.50;32.20;;;;;;5058828;28;20201;-73
2022/03/13 18:29:49;;;;;;;2.90;2.70;;;8.40;32.60;;;;;;5058520;28;20243;-71
2022/03/13 18:32:16;;;;;;;4.28;3.08;;;8.40;32.90;;;;;;5058364;28;20240;-72
2022/03/13 18:34:45;;;;;;;2.97;2.75;;;8.30;33.20;;;;;;5055420;28;20632;-71
2022/03/13 18:37:13;;;;;;;3.35;3.05;;;8.30;33.70;;;;;;5055637;28;20566;-71
2022/03/13 18:39:40;;;;;;;3.10;2.90;;;8.20;33.70;;;;;;5055833;28;20201;-73
2022/03/13 18:42:09;;;;;;;3.25;2.95;;;8.10;34.20;;;;;;5055046;28;20227;-72